sensor_id;sensor_type;location;lat;lon;timestamp;temperature;humidity
76139;DHT22;65138;50.946;7.074;2023-02-01T00:01:24;17.70;51.50
76139;DHT22;65138;50.946;7.074;2023-02-01T00:03:50;17.70;51.50
76139;DHT22;65138;50.946;7.074;2023-02-01T00:06:15;17.70;51.40
76139;DHT22;65138;50.946;7.074;2023-02-01T00:08:41;17.60;51.40
76139;DHT22;65138;50.946;7.074;2023-02-01T00:11:10;17.60;51.40
76139;DHT22;65138;50.946;7.074;2023-02-01T00:13:38;17.60;51.50
76139;DHT22;65138;50.946;7.074;2023-02-01T00:16:15;17.60;51.50
76139;DHT22;65138;50.946;7.074;2023-02-01T00:18:48;17.60;51.50
76139;DHT22;65138;50.946;7.074;2023-02-01T00:21:16;17.60;51.50
76139;DHT22;65138;50.946;7.074;2023-02-01T00:23:42;17.60;51.50
76139;DHT22;65138;50.946;7.074;2023-02-01T00:26:14;17.60;51.50
76139;DHT22;65138;50.946;7.074;2023-02-01T00:28:40;17.60;51.50
76139;DHT22;65138;50.946;7.074;2023-02-01T00:31:06;17.60;51.50
76139;DHT22;65138;50.946;7.074;2023-02-01T00:33:33;17.60;51.50
76139;DHT22;65138;50.946;7.074;2023-02-01T00:36:01;17.60;51.50
76139;DHT22;65138;50.946;7.074;2023-02-01T00:38:28;17.60;51.60
76139;DHT22;65138;50.946;7.074;2023-02-01T00:40:54;17.60;51.60
76139;DHT22;65138;50.946;7.074;2023-02-01T00:43:26;17.60;51.50
76139;DHT22;65138;50.946;7.074;2023-02-01T00:45:52;17.60;51.50
76139;DHT22;65138;50.946;7.074;2023-02-01T00:48:18;17.50;51.50
76139;DHT22;65138;50.946;7.074;2023-02-01T00:50:44;17.50;51.50
76139;DHT22;65138;50.946;7.074;2023-02-01T00:53:10;17.50;51.50
76139;DHT22;65138;50.946;7.074;2023-02-01T00:55:37;17.50;51.50
76139;DHT22;65138;50.946;7.074;2023-02-01T00:58:03;17.50;51.50
76139;DHT22;65138;50.946;7.074;2023-02-01T01:00:34;17.50;51.60
76139;DHT22;65138;50.946;7.074;2023-02-01T01:02:59;17.50;51.60
76139;DHT22;65138;50.946;7.074;2023-02-01T01:05:25;17.50;51.60
76139;DHT22;65138;50.946;7.074;2023-02-01T01:07:53;17.50;51.60
76139;DHT22;65138;50.946;7.074;2023-02-01T01:10:19;17.50;51.60
76139;DHT22;65138;50.946;7.074;2023-02-01T01:12:44;17.50;51.50
76139;DHT22;65138;50.946;7.074;2023-02-01T01:15:10;17.50;51.60
76139;DHT22;65138;50.946;7.074;2023-02-01T01:17:38;17.50;51.60
76139;DHT22;65138;50.946;7.074;2023-02-01T01:20:04;17.40;51.50
76139;DHT22;65138;50.946;7.074;2023-02-01T01:22:29;17.50;51.60
76139;DHT22;65138;50.946;7.074;2023-02-01T01:24:55;17.50;51.60
76139;DHT22;65138;50.946;7.074;2023-02-01T01:27:21;17.50;51.60
76139;DHT22;65138;50.946;7.074;2023-02-01T01:29:49;17.50;51.50
76139;DHT22;65138;50.946;7.074;2023-02-01T01:32:15;17.50;51.50
76139;DHT22;65138;50.946;7.074;2023-02-01T01:34:41;17.40;51.50
76139;DHT22;65138;50.946;7.074;2023-02-01T01:37:07;17.40;51.60
76139;DHT22;65138;50.946;7.074;2023-02-01T01:39:32;17.40;51.60
76139;DHT22;65138;50.946;7.074;2023-02-01T01:41:58;17.40;51.50
76139;DHT22;65138;50.946;7.074;2023-02-01T01:45:01;17.40;51.50
76139;DHT22;65138;50.946;7.074;2023-02-01T01:47:37;17.40;51.60
76139;DHT22;65138;50.946;7.074;2023-02-01T01:50:08;17.40;51.50
76139;DHT22;65138;50.946;7.074;2023-02-01T01:52:37;17.40;51.50
76139;DHT22;65138;50.946;7.074;2023-02-01T01:55:03;17.40;51.60
76139;DHT22;65138;50.946;7.074;2023-02-01T01:57:34;17.40;51.50
76139;DHT22;65138;50.946;7.074;2023-02-01T02:00:08;17.40;51.50
76139;DHT22;65138;50.946;7.074;2023-02-01T02:02:48;17.40;51.60
76139;DHT22;65138;50.946;7.074;2023-02-01T02:05:19;17.40;51.60
76139;DHT22;65138;50.946;7.074;2023-02-01T02:07:49;17.40;51.50
76139;DHT22;65138;50.946;7.074;2023-02-01T02:10:16;17.40;51.50
76139;DHT22;65138;50.946;7.074;2023-02-01T02:12:44;17.40;51.50
76139;DHT22;65138;50.946;7.074;2023-02-01T02:15:12;17.40;51.60
76139;DHT22;65138;50.946;7.074;2023-02-01T02:20:59;17.40;51.50
76139;DHT22;65138;50.946;7.074;2023-02-01T02:23:33;17.40;52.10
76139;DHT22;65138;50.946;7.074;2023-02-01T02:31:40;17.40;51.50
76139;DHT22;65138;50.946;7.074;2023-02-01T02:34:21;17.40;51.40
76139;DHT22;65138;50.946;7.074;2023-02-01T02:37:09;17.30;51.50
76139;DHT22;65138;50.946;7.074;2023-02-01T02:39:54;17.30;52.00
76139;DHT22;65138;50.946;7.074;2023-02-01T02:42:35;17.30;51.50
76139;DHT22;65138;50.946;7.074;2023-02-01T02:45:45;17.30;51.50
76139;DHT22;65138;50.946;7.074;2023-02-01T02:48:49;17.30;51.40
76139;DHT22;65138;50.946;7.074;2023-02-01T02:51:34;17.30;51.50
76139;DHT22;65138;50.946;7.074;2023-02-01T02:54:24;17.30;51.40
76139;DHT22;65138;50.946;7.074;2023-02-01T02:57:32;17.30;51.50
76139;DHT22;65138;50.946;7.074;2023-02-01T03:00:20;17.30;51.40
76139;DHT22;65138;50.946;7.074;2023-02-01T03:03:06;17.30;51.40
76139;DHT22;65138;50.946;7.074;2023-02-01T03:05:53;17.30;51.40
76139;DHT22;65138;50.946;7.074;2023-02-01T03:08:24;17.30;51.40
76139;DHT22;65138;50.946;7.074;2023-02-01T03:11:08;17.30;51.40
76139;DHT22;65138;50.946;7.074;2023-02-01T03:13:57;17.30;51.40
76139;DHT22;65138;50.946;7.074;2023-02-01T03:16:36;17.30;51.40
76139;DHT22;65138;50.946;7.074;2023-02-01T03:19:28;17.30;51.50
76139;DHT22;65138;50.946;7.074;2023-02-01T03:22:05;17.30;51.40
76139;DHT22;65138;50.946;7.074;2023-02-01T03:24:42;17.30;51.40
76139;DHT22;65138;50.946;7.074;2023-02-01T03:32:14;17.30;51.50
76139;DHT22;65138;50.946;7.074;2023-02-01T03:34:40;17.30;51.50
76139;DHT22;65138;50.946;7.074;2023-02-01T03:37:15;17.30;51.50
76139;DHT22;65138;50.946;7.074;2023-02-01T03:40:06;17.30;51.40
76139;DHT22;65138;50.946;7.074;2023-02-01T03:42:54;17.30;51.50
76139;DHT22;65138;50.946;7.074;2023-02-01T03:45:34;17.20;52.10
76139;DHT22;65138;50.946;7.074;2023-02-01T03:48:03;17.30;51.50
76139;DHT22;65138;50.946;7.074;2023-02-01T03:50:31;17.30;51.50
76139;DHT22;65138;50.946;7.074;2023-02-01T03:53:07;17.30;51.50
76139;DHT22;65138;50.946;7.074;2023-02-01T03:55:36;17.30;51.50
76139;DHT22;65138;50.946;7.074;2023-02-01T03:58:21;17.30;51.50
76139;DHT22;65138;50.946;7.074;2023-02-01T04:00:58;17.20;52.00
76139;DHT22;65138;50.946;7.074;2023-02-01T04:03:25;17.20;51.40
76139;DHT22;65138;50.946;7.074;2023-02-01T04:05:51;17.20;51.50
76139;DHT22;65138;50.946;7.074;2023-02-01T04:08:20;17.30;51.50
76139;DHT22;65138;50.946;7.074;2023-02-01T04:10:46;17.30;51.40
76139;DHT22;65138;50.946;7.074;2023-02-01T04:13:12;17.20;51.50
76139;DHT22;65138;50.946;7.074;2023-02-01T04:15:38;17.20;51.40
76139;DHT22;65138;50.946;7.074;2023-02-01T04:18:05;17.20;51.40
76139;DHT22;65138;50.946;7.074;2023-02-01T04:20:31;17.20;51.50
76139;DHT22;65138;50.946;7.074;2023-02-01T04:22:57;17.20;51.40
76139;DHT22;65138;50.946;7.074;2023-02-01T04:25:23;17.20;51.40
76139;DHT22;65138;50.946;7.074;2023-02-01T04:27:48;17.20;51.40
76139;DHT22;65138;50.946;7.074;2023-02-01T04:30:14;17.20;51.40
76139;DHT22;65138;50.946;7.074;2023-02-01T04:32:40;17.20;51.40
76139;DHT22;65138;50.946;7.074;2023-02-01T04:35:07;17.20;51.40
76139;DHT22;65138;50.946;7.074;2023-02-01T04:37:33;17.20;51.40
76139;DHT22;65138;50.946;7.074;2023-02-01T04:39:59;17.20;51.40
76139;DHT22;65138;50.946;7.074;2023-02-01T04:42:25;17.20;51.40
76139;DHT22;65138;50.946;7.074;2023-02-01T04:44:50;17.20;51.40
76139;DHT22;65138;50.946;7.074;2023-02-01T04:47:17;17.20;51.40
76139;DHT22;65138;50.946;7.074;2023-02-01T04:49:43;17.20;51.50
76139;DHT22;65138;50.946;7.074;2023-02-01T04:52:09;17.20;51.40
76139;DHT22;65138;50.946;7.074;2023-02-01T04:54:34;17.20;51.40
76139;DHT22;65138;50.946;7.074;2023-02-01T04:57:01;17.20;51.40
76139;DHT22;65138;50.946;7.074;2023-02-01T04:59:27;17.20;51.40
76139;DHT22;65138;50.946;7.074;2023-02-01T05:01:54;17.20;51.40
76139;DHT22;65138;50.946;7.074;2023-02-01T05:04:19;17.20;51.50
76139;DHT22;65138;50.946;7.074;2023-02-01T05:06:45;17.20;51.40
76139;DHT22;65138;50.946;7.074;2023-02-01T05:09:11;17.20;51.50
76139;DHT22;65138;50.946;7.074;2023-02-01T05:11:38;17.20;51.40
76139;DHT22;65138;50.946;7.074;2023-02-01T05:14:22;17.20;51.40
76139;DHT22;65138;50.946;7.074;2023-02-01T05:16:48;17.30;51.30
76139;DHT22;65138;50.946;7.074;2023-02-01T05:19:14;17.30;51.20
76139;DHT22;65138;50.946;7.074;2023-02-01T05:21:39;17.30;51.10
76139;DHT22;65138;50.946;7.074;2023-02-01T05:24:07;17.40;51.10
76139;DHT22;65138;50.946;7.074;2023-02-01T05:26:37;17.40;51.10
76139;DHT22;65138;50.946;7.074;2023-02-01T05:29:04;17.40;51.10
76139;DHT22;65138;50.946;7.074;2023-02-01T05:31:30;17.40;51.10
76139;DHT22;65138;50.946;7.074;2023-02-01T05:33:55;17.50;51.10
76139;DHT22;65138;50.946;7.074;2023-02-01T05:36:21;17.50;51.10
76139;DHT22;65138;50.946;7.074;2023-02-01T05:38:47;17.50;51.00
76139;DHT22;65138;50.946;7.074;2023-02-01T05:41:13;17.50;51.10
76139;DHT22;65138;50.946;7.074;2023-02-01T05:43:39;17.50;51.00
76139;DHT22;65138;50.946;7.074;2023-02-01T05:46:04;17.50;51.00
76139;DHT22;65138;50.946;7.074;2023-02-01T05:48:30;17.60;51.00
76139;DHT22;65138;50.946;7.074;2023-02-01T05:50:59;17.50;51.10
76139;DHT22;65138;50.946;7.074;2023-02-01T05:53:25;16.60;52.60
76139;DHT22;65138;50.946;7.074;2023-02-01T05:55:50;16.50;53.20
76139;DHT22;65138;50.946;7.074;2023-02-01T05:58:16;16.80;52.20
76139;DHT22;65138;50.946;7.074;2023-02-01T06:00:42;16.60;51.50
76139;DHT22;65138;50.946;7.074;2023-02-01T06:03:10;16.80;51.50
76139;DHT22;65138;50.946;7.074;2023-02-01T06:05:37;17.20;51.10
76139;DHT22;65138;50.946;7.074;2023-02-01T06:08:03;17.50;51.10
76139;DHT22;65138;50.946;7.074;2023-02-01T06:10:30;17.30;50.10
76139;DHT22;65138;50.946;7.074;2023-02-01T06:12:57;15.90;51.40
76139;DHT22;65138;50.946;7.074;2023-02-01T06:15:23;15.20;52.80
76139;DHT22;65138;50.946;7.074;2023-02-01T06:17:48;14.70;53.50
76139;DHT22;65138;50.946;7.074;2023-02-01T06:20:17;14.60;53.80
76139;DHT22;65138;50.946;7.074;2023-02-01T06:22:43;14.40;54.30
76139;DHT22;65138;50.946;7.074;2023-02-01T06:25:10;14.40;54.30
76139;DHT22;65138;50.946;7.074;2023-02-01T06:27:36;14.30;54.40
76139;DHT22;65138;50.946;7.074;2023-02-01T06:30:03;14.20;54.40
76139;DHT22;65138;50.946;7.074;2023-02-01T06:32:29;14.40;54.30
76139;DHT22;65138;50.946;7.074;2023-02-01T06:34:54;14.20;54.50
76139;DHT22;65138;50.946;7.074;2023-02-01T06:37:22;13.90;55.00
76139;DHT22;65138;50.946;7.074;2023-02-01T06:39:48;13.90;55.10
76139;DHT22;65138;50.946;7.074;2023-02-01T06:42:14;14.00;54.80
76139;DHT22;65138;50.946;7.074;2023-02-01T06:44:40;13.90;54.90
76139;DHT22;65138;50.946;7.074;2023-02-01T06:47:06;13.90;55.10
76139;DHT22;65138;50.946;7.074;2023-02-01T06:49:32;13.90;54.90
76139;DHT22;65138;50.946;7.074;2023-02-01T06:51:58;13.90;55.20
76139;DHT22;65138;50.946;7.074;2023-02-01T06:54:26;13.80;55.30
76139;DHT22;65138;50.946;7.074;2023-02-01T06:56:52;13.80;55.40
76139;DHT22;65138;50.946;7.074;2023-02-01T06:59:23;14.00;55.20
76139;DHT22;65138;50.946;7.074;2023-02-01T07:01:49;14.10;55.50
76139;DHT22;65138;50.946;7.074;2023-02-01T07:04:15;14.10;55.20
76139;DHT22;65138;50.946;7.074;2023-02-01T07:06:41;14.10;55.40
76139;DHT22;65138;50.946;7.074;2023-02-01T07:09:07;14.00;55.30
76139;DHT22;65138;50.946;7.074;2023-02-01T07:11:33;14.30;55.70
76139;DHT22;65138;50.946;7.074;2023-02-01T07:13:59;14.50;55.30
76139;DHT22;65138;50.946;7.074;2023-02-01T07:16:25;15.20;53.80
76139;DHT22;65138;50.946;7.074;2023-02-01T07:18:52;15.80;52.70
76139;DHT22;65138;50.946;7.074;2023-02-01T07:21:18;16.10;52.20
76139;DHT22;65138;50.946;7.074;2023-02-01T07:23:44;16.50;52.00
76139;DHT22;65138;50.946;7.074;2023-02-01T07:26:12;16.90;51.50
76139;DHT22;65138;50.946;7.074;2023-02-01T07:28:38;16.70;51.30
76139;DHT22;65138;50.946;7.074;2023-02-01T07:33:30;16.20;52.30
76139;DHT22;65138;50.946;7.074;2023-02-01T07:35:56;16.20;52.20
76139;DHT22;65138;50.946;7.074;2023-02-01T07:38:21;16.10;52.60
76139;DHT22;65138;50.946;7.074;2023-02-01T07:40:49;16.50;52.00
76139;DHT22;65138;50.946;7.074;2023-02-01T07:43:15;16.80;51.30
76139;DHT22;65138;50.946;7.074;2023-02-01T07:45:41;16.90;51.10
76139;DHT22;65138;50.946;7.074;2023-02-01T07:48:06;17.00;51.20
76139;DHT22;65138;50.946;7.074;2023-02-01T07:50:32;17.00;51.10
76139;DHT22;65138;50.946;7.074;2023-02-01T07:52:59;17.00;51.00
76139;DHT22;65138;50.946;7.074;2023-02-01T07:55:26;17.10;50.80
76139;DHT22;65138;50.946;7.074;2023-02-01T07:57:52;17.10;50.80
76139;DHT22;65138;50.946;7.074;2023-02-01T08:00:18;17.20;50.80
76139;DHT22;65138;50.946;7.074;2023-02-01T08:03:04;17.20;50.80
76139;DHT22;65138;50.946;7.074;2023-02-01T08:05:30;17.10;50.80
76139;DHT22;65138;50.946;7.074;2023-02-01T08:07:55;17.10;51.00
76139;DHT22;65138;50.946;7.074;2023-02-01T08:10:21;17.20;50.80
76139;DHT22;65138;50.946;7.074;2023-02-01T08:12:47;17.30;50.70
76139;DHT22;65138;50.946;7.074;2023-02-01T08:15:17;17.30;50.60
76139;DHT22;65138;50.946;7.074;2023-02-01T08:17:50;17.30;50.80
76139;DHT22;65138;50.946;7.074;2023-02-01T08:20:17;17.30;50.70
76139;DHT22;65138;50.946;7.074;2023-02-01T08:22:43;17.40;50.70
76139;DHT22;65138;50.946;7.074;2023-02-01T08:25:09;17.40;50.70
76139;DHT22;65138;50.946;7.074;2023-02-01T08:27:35;17.40;50.60
76139;DHT22;65138;50.946;7.074;2023-02-01T08:30:01;17.50;50.60
76139;DHT22;65138;50.946;7.074;2023-02-01T08:32:27;17.40;50.50
76139;DHT22;65138;50.946;7.074;2023-02-01T08:34:53;17.50;50.60
76139;DHT22;65138;50.946;7.074;2023-02-01T08:37:19;17.50;50.50
76139;DHT22;65138;50.946;7.074;2023-02-01T08:39:45;17.50;50.50
76139;DHT22;65138;50.946;7.074;2023-02-01T08:42:12;17.60;50.60
76139;DHT22;65138;50.946;7.074;2023-02-01T08:44:56;17.60;50.40
76139;DHT22;65138;50.946;7.074;2023-02-01T08:47:23;17.60;50.40
76139;DHT22;65138;50.946;7.074;2023-02-01T08:49:48;17.70;50.30
76139;DHT22;65138;50.946;7.074;2023-02-01T08:52:14;17.70;50.30
76139;DHT22;65138;50.946;7.074;2023-02-01T08:54:41;17.70;50.30
76139;DHT22;65138;50.946;7.074;2023-02-01T08:57:07;17.70;50.30
76139;DHT22;65138;50.946;7.074;2023-02-01T08:59:33;17.70;50.30
76139;DHT22;65138;50.946;7.074;2023-02-01T09:02:00;17.70;50.40
76139;DHT22;65138;50.946;7.074;2023-02-01T09:04:25;17.80;50.40
76139;DHT22;65138;50.946;7.074;2023-02-01T09:06:51;17.80;50.30
76139;DHT22;65138;50.946;7.074;2023-02-01T09:09:17;17.80;50.20
76139;DHT22;65138;50.946;7.074;2023-02-01T09:11:44;17.80;50.30
76139;DHT22;65138;50.946;7.074;2023-02-01T09:14:09;17.80;50.20
76139;DHT22;65138;50.946;7.074;2023-02-01T09:16:35;17.80;50.30
76139;DHT22;65138;50.946;7.074;2023-02-01T09:19:02;17.90;50.30
76139;DHT22;65138;50.946;7.074;2023-02-01T09:21:28;17.90;50.20
76139;DHT22;65138;50.946;7.074;2023-02-01T09:23:53;17.90;50.20
76139;DHT22;65138;50.946;7.074;2023-02-01T09:26:19;17.90;50.20
76139;DHT22;65138;50.946;7.074;2023-02-01T09:28:45;17.90;50.20
76139;DHT22;65138;50.946;7.074;2023-02-01T09:31:10;17.90;50.30
76139;DHT22;65138;50.946;7.074;2023-02-01T09:33:36;18.00;50.40
76139;DHT22;65138;50.946;7.074;2023-02-01T09:36:04;18.10;50.10
76139;DHT22;65138;50.946;7.074;2023-02-01T09:38:30;18.20;50.20
76139;DHT22;65138;50.946;7.074;2023-02-01T09:40:58;18.30;50.30
76139;DHT22;65138;50.946;7.074;2023-02-01T09:43:45;18.10;50.10
76139;DHT22;65138;50.946;7.074;2023-02-01T09:46:24;18.00;50.40
76139;DHT22;65138;50.946;7.074;2023-02-01T09:48:54;18.00;50.40
76139;DHT22;65138;50.946;7.074;2023-02-01T09:51:41;18.30;50.10
76139;DHT22;65138;50.946;7.074;2023-02-01T09:54:18;18.20;50.10
76139;DHT22;65138;50.946;7.074;2023-02-01T09:57:03;18.20;50.20
76139;DHT22;65138;50.946;7.074;2023-02-01T09:59:39;18.10;50.20
76139;DHT22;65138;50.946;7.074;2023-02-01T10:02:21;18.10;50.10
76139;DHT22;65138;50.946;7.074;2023-02-01T10:04:49;18.10;50.20
76139;DHT22;65138;50.946;7.074;2023-02-01T10:18:30;18.20;50.10
76139;DHT22;65138;50.946;7.074;2023-02-01T10:21:30;18.20;50.10
76139;DHT22;65138;50.946;7.074;2023-02-01T10:27:01;18.30;50.00
76139;DHT22;65138;50.946;7.074;2023-02-01T10:29:34;18.30;50.00
76139;DHT22;65138;50.946;7.074;2023-02-01T10:32:02;18.30;50.00
76139;DHT22;65138;50.946;7.074;2023-02-01T10:34:31;18.30;49.90
76139;DHT22;65138;50.946;7.074;2023-02-01T10:37:25;18.10;50.30
76139;DHT22;65138;50.946;7.074;2023-02-01T10:39:56;18.10;50.30
76139;DHT22;65138;50.946;7.074;2023-02-01T10:42:29;18.30;50.00
76139;DHT22;65138;50.946;7.074;2023-02-01T10:44:59;18.30;49.80
76139;DHT22;65138;50.946;7.074;2023-02-01T10:47:25;18.40;49.80
76139;DHT22;65138;50.946;7.074;2023-02-01T10:49:58;18.60;49.60
76139;DHT22;65138;50.946;7.074;2023-02-01T10:52:36;18.50;49.80
76139;DHT22;65138;50.946;7.074;2023-02-01T10:58:03;18.60;49.80
76139;DHT22;65138;50.946;7.074;2023-02-01T11:00:42;18.60;49.60
76139;DHT22;65138;50.946;7.074;2023-02-01T11:03:42;18.70;49.50
76139;DHT22;65138;50.946;7.074;2023-02-01T11:11:33;18.70;49.60
76139;DHT22;65138;50.946;7.074;2023-02-01T11:16:52;18.70;49.70
76139;DHT22;65138;50.946;7.074;2023-02-01T11:19:18;18.70;49.60
76139;DHT22;65138;50.946;7.074;2023-02-01T11:21:51;18.70;49.60
76139;DHT22;65138;50.946;7.074;2023-02-01T11:24:26;18.70;49.60
76139;DHT22;65138;50.946;7.074;2023-02-01T11:26:58;18.70;49.60
76139;DHT22;65138;50.946;7.074;2023-02-01T11:29:25;18.70;49.60
76139;DHT22;65138;50.946;7.074;2023-02-01T11:31:59;18.70;49.70
76139;DHT22;65138;50.946;7.074;2023-02-01T11:34:31;18.70;49.60
76139;DHT22;65138;50.946;7.074;2023-02-01T11:37:01;18.50;50.00
76139;DHT22;65138;50.946;7.074;2023-02-01T11:39:34;18.30;50.30
76139;DHT22;65138;50.946;7.074;2023-02-01T11:42:04;18.40;50.00
76139;DHT22;65138;50.946;7.074;2023-02-01T11:44:40;18.50;49.90
76139;DHT22;65138;50.946;7.074;2023-02-01T11:49:55;18.70;49.70
76139;DHT22;65138;50.946;7.074;2023-02-01T12:11:37;18.60;49.80
76139;DHT22;65138;50.946;7.074;2023-02-01T12:14:32;18.60;49.80
76139;DHT22;65138;50.946;7.074;2023-02-01T12:28:15;18.60;49.90
76139;DHT22;65138;50.946;7.074;2023-02-01T12:37:06;18.60;50.00
76139;DHT22;65138;50.946;7.074;2023-02-01T12:42:57;18.50;49.90
76139;DHT22;65138;50.946;7.074;2023-02-01T12:45:31;18.50;50.10
76139;DHT22;65138;50.946;7.074;2023-02-01T12:51:23;18.50;50.00
76139;DHT22;65138;50.946;7.074;2023-02-01T12:54:04;18.50;49.80
76139;DHT22;65138;50.946;7.074;2023-02-01T12:56:47;18.50;49.90
76139;DHT22;65138;50.946;7.074;2023-02-01T13:01:53;18.50;49.80
76139;DHT22;65138;50.946;7.074;2023-02-01T13:04:38;18.50;49.80
76139;DHT22;65138;50.946;7.074;2023-02-01T13:07:22;18.50;49.80
76139;DHT22;65138;50.946;7.074;2023-02-01T13:09:55;18.50;49.80
76139;DHT22;65138;50.946;7.074;2023-02-01T13:12:33;18.40;49.90
76139;DHT22;65138;50.946;7.074;2023-02-01T13:15:21;18.40;50.00
76139;DHT22;65138;50.946;7.074;2023-02-01T13:17:49;18.40;50.00
76139;DHT22;65138;50.946;7.074;2023-02-01T13:20:37;18.40;50.00
76139;DHT22;65138;50.946;7.074;2023-02-01T13:23:09;18.20;49.90
76139;DHT22;65138;50.946;7.074;2023-02-01T13:25:43;18.10;50.00
76139;DHT22;65138;50.946;7.074;2023-02-01T13:28:15;18.10;50.10
76139;DHT22;65138;50.946;7.074;2023-02-01T13:36:30;18.30;49.90
76139;DHT22;65138;50.946;7.074;2023-02-01T13:42:16;18.40;49.80
76139;DHT22;65138;50.946;7.074;2023-02-01T13:44:52;18.50;50.10
76139;DHT22;65138;50.946;7.074;2023-02-01T13:49:54;18.60;50.60
76139;DHT22;65138;50.946;7.074;2023-02-01T13:52:36;18.60;50.50
76139;DHT22;65138;50.946;7.074;2023-02-01T13:57:46;18.70;50.40
76139;DHT22;65138;50.946;7.074;2023-02-01T14:03:15;18.80;50.30
76139;DHT22;65138;50.946;7.074;2023-02-01T14:08:10;16.50;52.10
76139;DHT22;65138;50.946;7.074;2023-02-01T14:13:37;17.60;50.80
76139;DHT22;65138;50.946;7.074;2023-02-01T14:21:31;18.30;50.10
76139;DHT22;65138;50.946;7.074;2023-02-01T14:24:14;18.40;50.10
76139;DHT22;65138;50.946;7.074;2023-02-01T14:26:45;18.30;50.20
76139;DHT22;65138;50.946;7.074;2023-02-01T14:29:31;18.50;50.00
76139;DHT22;65138;50.946;7.074;2023-02-01T14:32:22;18.60;49.90
76139;DHT22;65138;50.946;7.074;2023-02-01T14:34:54;18.70;49.90
76139;DHT22;65138;50.946;7.074;2023-02-01T14:40:05;18.70;49.90
76139;DHT22;65138;50.946;7.074;2023-02-01T14:42:46;18.80;49.90
76139;DHT22;65138;50.946;7.074;2023-02-01T14:47:45;18.80;50.00
76139;DHT22;65138;50.946;7.074;2023-02-01T14:55:49;18.80;49.90
76139;DHT22;65138;50.946;7.074;2023-02-01T14:58:55;18.90;50.00
76139;DHT22;65138;50.946;7.074;2023-02-01T15:01:24;18.90;49.90
76139;DHT22;65138;50.946;7.074;2023-02-01T15:04:00;18.90;49.70
76139;DHT22;65138;50.946;7.074;2023-02-01T15:06:31;18.90;49.90
76139;DHT22;65138;50.946;7.074;2023-02-01T15:11:56;18.70;49.00
76139;DHT22;65138;50.946;7.074;2023-02-01T15:14:22;18.60;50.40
76139;DHT22;65138;50.946;7.074;2023-02-01T15:16:47;18.80;50.10
76139;DHT22;65138;50.946;7.074;2023-02-01T15:19:20;18.90;49.70
76139;DHT22;65138;50.946;7.074;2023-02-01T15:21:49;18.80;49.60
76139;DHT22;65138;50.946;7.074;2023-02-01T15:24:24;18.70;49.80
76139;DHT22;65138;50.946;7.074;2023-02-01T15:26:51;18.70;49.70
76139;DHT22;65138;50.946;7.074;2023-02-01T15:29:19;18.70;49.70
76139;DHT22;65138;50.946;7.074;2023-02-01T15:31:48;18.70;49.70
76139;DHT22;65138;50.946;7.074;2023-02-01T15:34:16;18.70;49.70
76139;DHT22;65138;50.946;7.074;2023-02-01T15:36:44;18.60;49.70
76139;DHT22;65138;50.946;7.074;2023-02-01T15:39:24;18.60;49.50
76139;DHT22;65138;50.946;7.074;2023-02-01T15:42:00;18.70;49.60
76139;DHT22;65138;50.946;7.074;2023-02-01T15:44:34;18.70;49.50
76139;DHT22;65138;50.946;7.074;2023-02-01T15:47:15;18.60;49.60
76139;DHT22;65138;50.946;7.074;2023-02-01T15:49:44;18.60;49.70
76139;DHT22;65138;50.946;7.074;2023-02-01T15:52:36;18.60;49.60
76139;DHT22;65138;50.946;7.074;2023-02-01T15:55:08;18.60;49.50
76139;DHT22;65138;50.946;7.074;2023-02-01T15:57:39;18.60;49.60
76139;DHT22;65138;50.946;7.074;2023-02-01T16:00:21;18.60;49.60
76139;DHT22;65138;50.946;7.074;2023-02-01T16:03:04;18.50;49.60
76139;DHT22;65138;50.946;7.074;2023-02-01T16:05:35;18.50;49.60
76139;DHT22;65138;50.946;7.074;2023-02-01T16:08:19;18.50;49.60
76139;DHT22;65138;50.946;7.074;2023-02-01T16:10:49;18.50;49.60
76139;DHT22;65138;50.946;7.074;2023-02-01T16:13:19;18.50;49.60
76139;DHT22;65138;50.946;7.074;2023-02-01T16:15:47;18.50;49.60
76139;DHT22;65138;50.946;7.074;2023-02-01T16:18:14;18.50;49.70
76139;DHT22;65138;50.946;7.074;2023-02-01T16:20:43;18.50;49.70
76139;DHT22;65138;50.946;7.074;2023-02-01T16:23:09;18.50;49.70
76139;DHT22;65138;50.946;7.074;2023-02-01T16:25:37;18.50;49.60
76139;DHT22;65138;50.946;7.074;2023-02-01T16:28:05;18.50;49.50
76139;DHT22;65138;50.946;7.074;2023-02-01T16:30:32;18.50;49.70
76139;DHT22;65138;50.946;7.074;2023-02-01T16:32:59;18.50;49.70
76139;DHT22;65138;50.946;7.074;2023-02-01T16:35:36;18.50;49.70
76139;DHT22;65138;50.946;7.074;2023-02-01T16:40:35;18.50;49.60
76139;DHT22;65138;50.946;7.074;2023-02-01T16:43:00;18.50;49.70
76139;DHT22;65138;50.946;7.074;2023-02-01T16:45:26;18.40;49.70
76139;DHT22;65138;50.946;7.074;2023-02-01T16:47:54;18.40;49.80
76139;DHT22;65138;50.946;7.074;2023-02-01T16:50:25;18.40;49.80
76139;DHT22;65138;50.946;7.074;2023-02-01T16:52:52;18.40;49.80
76139;DHT22;65138;50.946;7.074;2023-02-01T16:55:19;18.40;49.80
76139;DHT22;65138;50.946;7.074;2023-02-01T16:57:46;18.40;49.80
76139;DHT22;65138;50.946;7.074;2023-02-01T17:00:14;18.40;49.80
76139;DHT22;65138;50.946;7.074;2023-02-01T17:02:46;18.50;50.10
76139;DHT22;65138;50.946;7.074;2023-02-01T17:05:12;18.70;49.90
76139;DHT22;65138;50.946;7.074;2023-02-01T17:07:38;18.70;49.70
76139;DHT22;65138;50.946;7.074;2023-02-01T17:10:33;18.40;49.60
76139;DHT22;65138;50.946;7.074;2023-02-01T17:12:59;17.50;51.60
76139;DHT22;65138;50.946;7.074;2023-02-01T17:15:31;17.80;51.00
76139;DHT22;65138;50.946;7.074;2023-02-01T17:17:59;18.00;50.50
76139;DHT22;65138;50.946;7.074;2023-02-01T17:20:29;18.10;50.30
76139;DHT22;65138;50.946;7.074;2023-02-01T17:22:57;18.10;50.20
76139;DHT22;65138;50.946;7.074;2023-02-01T17:25:24;18.20;50.10
76139;DHT22;65138;50.946;7.074;2023-02-01T17:27:51;18.20;50.10
76139;DHT22;65138;50.946;7.074;2023-02-01T17:30:17;18.20;50.10
76139;DHT22;65138;50.946;7.074;2023-02-01T17:32:43;18.20;50.10
76139;DHT22;65138;50.946;7.074;2023-02-01T17:35:23;18.20;50.10
76139;DHT22;65138;50.946;7.074;2023-02-01T17:37:49;18.10;50.10
76139;DHT22;65138;50.946;7.074;2023-02-01T17:40:16;18.20;50.10
76139;DHT22;65138;50.946;7.074;2023-02-01T17:42:41;18.20;50.10
76139;DHT22;65138;50.946;7.074;2023-02-01T17:45:34;18.20;50.10
76139;DHT22;65138;50.946;7.074;2023-02-01T17:48:05;18.20;50.10
76139;DHT22;65138;50.946;7.074;2023-02-01T17:50:32;18.20;50.30
76139;DHT22;65138;50.946;7.074;2023-02-01T17:52:59;18.20;50.20
76139;DHT22;65138;50.946;7.074;2023-02-01T17:55:26;18.20;50.20
76139;DHT22;65138;50.946;7.074;2023-02-01T17:57:51;18.20;50.20
76139;DHT22;65138;50.946;7.074;2023-02-01T18:00:18;18.20;50.20
76139;DHT22;65138;50.946;7.074;2023-02-01T18:02:44;18.10;50.20
76139;DHT22;65138;50.946;7.074;2023-02-01T18:05:18;18.20;50.30
76139;DHT22;65138;50.946;7.074;2023-02-01T18:07:45;18.20;50.30